CheckWX is a tool to help pilots better visualize weather data.  It is not intended as a substitute for an official pre-flight weather briefing.

17:08:35 UTC

KJQF METAR
Concord Regional Airport
Concord, North Carolina, USA
Current

1 hour ago

KJQF 211553Z 22010G15KT 10SM CLR 33/19 A3006
Observed
Jul-21 @ 15:53 UTC
Wind
  • 220° at 10 KTS
  • Gusting to 15 KTS
Visibility
10 SM
Flight Rules
VFR
Cloud Levels
  • Clear skies
Temperature
33°C / 91°F
Dewpoint
19°C / 66°F
Heat Index
34°C / 94°F
Humidity
44%
Altimeter
30.06" Hg
Pressure
1017.92 hPa
Previous

2 hours ago

KJQF 211450Z 23008KT 10SM CLR 32/21 A3006
Observed
Jul-21 @ 14:50 UTC
Wind
  • 230° at 8 KTS
Visibility
10 SM
Flight Rules
VFR
Cloud Levels
  • Clear skies
Temperature
32°C / 90°F
Dewpoint
21°C / 70°F
Heat Index
36°C / 96°F
Humidity
52%
Altimeter
30.06" Hg
Pressure
1017.92 hPa
Previous

3 hours ago

KJQF 211353Z 23010G15KT 10SM CLR 31/21 A3007
Observed
Jul-21 @ 13:53 UTC
Wind
  • 230° at 10 KTS
  • Gusting to 15 KTS
Visibility
10 SM
Flight Rules
VFR
Cloud Levels
  • Clear skies
Temperature
31°C / 88°F
Dewpoint
21°C / 70°F
Heat Index
34°C / 93°F
Humidity
55%
Altimeter
30.07" Hg
Pressure
1018.32 hPa